Time;durP1;ratioP1;P1;durP2;ratioP2;P2;SDS_P1;SDS_P2;PMS_P1;PMS_P2;Temp;Humidity;BMP_temperature;BMP_pressure;BME280_temperature;BME280_humidity;BME280_pressure;Samples;Min_cycle;Max_cycle;Signal;HPM_P1;HPM_P2
2022/08/15 00:01:36;;;;;;;1999.90;999.90;;;23.30;99.90;;;;;;5015976;28;20470;-71
2022/08/15 00:04:05;;;;;;;1999.90;999.90;;;23.30;99.90;;;;;;5015014;28;20843;-71
2022/08/15 00:06:35;;;;;;;1999.90;999.90;;;23.40;99.90;;;;;;5014755;28;20463;-71
2022/08/15 00:09:08;;;;;;;1999.90;999.90;;;23.40;99.90;;;;;;5015828;28;20448;-71
2022/08/15 00:11:40;;;;;;;1999.90;999.90;;;23.30;99.90;;;;;;5015943;28;20530;-70
2022/08/15 00:14:10;;;;;;;1999.90;999.90;;;23.30;99.90;;;;;;5015732;28;20467;-71
2022/08/15 00:16:39;;;;;;;1999.90;999.90;;;23.30;99.90;;;;;;5014494;28;20514;-70
2022/08/15 00:19:09;;;;;;;1999.90;999.90;;;23.40;99.90;;;;;;5015382;28;20870;-71
2022/08/15 00:21:36;;;;;;;1999.90;999.90;;;23.30;99.90;;;;;;5014761;28;20467;-71
2022/08/15 00:24:04;;;;;;;1999.90;999.90;;;23.30;99.90;;;;;;5015510;28;20522;-71
2022/08/15 00:26:34;;;;;;;1999.90;999.90;;;23.20;99.90;;;;;;5015069;28;20451;-71
2022/08/15 00:29:03;;;;;;;1999.90;999.90;;;23.20;99.90;;;;;;5015269;28;20498;-71
2022/08/15 00:31:31;;;;;;;1999.90;999.90;;;23.20;99.90;;;;;;5014631;28;20494;-71
2022/08/15 00:33:58;;;;;;;1999.90;999.90;;;23.10;99.90;;;;;;5015155;28;20547;-71
2022/08/15 00:36:25;;;;;;;1999.90;999.90;;;23.00;99.90;;;;;;5014618;28;20532;-71
2022/08/15 00:38:52;;;;;;;1999.90;999.90;;;22.90;99.90;;;;;;5015236;28;20444;-71
2022/08/15 00:44:11;;;;;;;1999.90;999.90;;;23.20;99.90;;;;;;5013631;28;20887;-71
2022/08/15 00:46:40;;;;;;;1999.90;999.90;;;23.10;99.90;;;;;;5014778;28;20452;-71
2022/08/15 00:49:07;;;;;;;1999.90;999.90;;;23.20;99.90;;;;;;5015071;28;20514;-71
2022/08/15 00:51:39;;;;;;;1999.90;999.90;;;23.10;99.90;;;;;;5014837;28;20906;-71
2022/08/15 00:54:10;;;;;;;1999.90;999.90;;;23.10;99.90;;;;;;5014853;28;20510;-71
2022/08/15 00:56:42;;;;;;;1999.90;999.90;;;23.00;99.90;;;;;;5014773;28;20547;-72
2022/08/15 00:59:14;;;;;;;1999.90;999.90;;;23.20;99.90;;;;;;5013065;28;20884;-71
2022/08/15 01:01:42;;;;;;;1999.90;999.90;;;22.90;99.90;;;;;;5013917;28;20460;-72
2022/08/15 01:04:09;;;;;;;1999.90;999.90;;;22.90;99.90;;;;;;5014229;28;20468;-71
2022/08/15 01:06:37;;;;;;;1999.90;999.90;;;22.90;99.90;;;;;;5014555;28;20448;-71
2022/08/15 01:09:05;;;;;;;1999.90;999.90;;;22.90;99.90;;;;;;5012748;28;20464;-71
2022/08/15 01:11:36;;;;;;;1999.90;999.90;;;22.80;99.90;;;;;;5014092;28;20867;-71
2022/08/15 01:14:06;;;;;;;1999.90;999.90;;;22.80;99.90;;;;;;5014400;28;20476;-71
2022/08/15 01:16:38;;;;;;;1999.90;999.90;;;22.80;99.90;;;;;;5014203;28;20967;-71
2022/08/15 01:19:10;;;;;;;1999.90;999.90;;;22.80;99.90;;;;;;5014461;28;20459;-71
2022/08/15 01:21:45;;;;;;;1999.90;999.90;;;22.80;99.90;;;;;;5013387;28;20456;-71
2022/08/15 01:24:20;;;;;;;1999.90;999.90;;;22.80;99.90;;;;;;5013326;28;20537;-71
2022/08/15 01:26:48;;;;;;;1999.90;999.90;;;22.80;99.90;;;;;;5014017;28;20956;-71
2022/08/15 01:29:17;;;;;;;1999.90;999.90;;;22.90;99.90;;;;;;5014032;28;20448;-71
2022/08/15 01:31:44;;;;;;;1999.90;999.90;;;22.80;99.90;;;;;;5013738;28;20659;-71
2022/08/15 01:34:10;;;;;;;1999.90;999.90;;;22.70;99.90;;;;;;5013161;28;20567;-71
2022/08/15 01:36:37;;;;;;;1999.90;999.90;;;22.60;99.90;;;;;;5013174;28;20530;-71
2022/08/15 01:39:10;;;;;;;1999.90;999.90;;;22.40;99.90;;;;;;5013935;28;20453;-70
2022/08/15 01:41:42;;;;;;;1999.90;999.90;;;22.30;99.90;;;;;;5013971;28;20503;-71
2022/08/15 01:44:17;;;;;;;1999.90;999.90;;;22.30;99.90;;;;;;5012340;28;20542;-70
2022/08/15 01:46:51;;;;;;;1999.90;999.90;;;22.40;99.90;;;;;;5013643;28;20809;-71
2022/08/15 01:49:27;;;;;;;1999.90;999.90;;;22.40;99.90;;;;;;5013207;28;20460;-71
2022/08/15 01:51:57;;;;;;;1999.90;999.90;;;22.40;99.90;;;;;;5013114;28;20545;-70
2022/08/15 01:54:26;;;;;;;1999.90;999.90;;;22.50;99.90;;;;;;5013501;28;20492;-69
2022/08/15 01:56:53;;;;;;;1999.90;999.90;;;22.50;99.90;;;;;;5013746;28;20444;-71
2022/08/15 01:59:23;;;;;;;1999.90;999.90;;;22.40;99.90;;;;;;5013705;28;20495;-71
2022/08/15 02:01:53;;;;;;;1999.90;999.90;;;22.40;99.90;;;;;;5013683;28;20452;-71
2022/08/15 02:04:24;;;;;;;1999.90;999.90;;;22.20;99.90;;;;;;5012545;28;20467;-70
2022/08/15 02:06:52;;;;;;;1999.90;999.90;;;21.90;99.90;;;;;;5013290;28;20511;-71
2022/08/15 02:09:20;;;;;;;1999.90;999.90;;;22.10;99.90;;;;;;5013433;28;20460;-71
2022/08/15 02:11:48;;;;;;;1999.90;999.90;;;22.00;99.90;;;;;;5013624;28;20487;-70
2022/08/15 02:14:14;;;;;;;1999.90;999.90;;;21.80;99.90;;;;;;5013233;28;20603;-71
2022/08/15 02:16:43;;;;;;;1999.90;999.90;;;21.80;99.90;;;;;;5012340;28;20468;-70
2022/08/15 02:19:13;;;;;;;1999.90;999.90;;;21.80;99.90;;;;;;5013275;28;20460;-71
2022/08/15 02:21:43;;;;;;;1999.90;999.90;;;21.80;99.90;;;;;;5012401;28;20448;-71
2022/08/15 02:24:15;;;;;;;1999.90;999.90;;;21.60;99.90;;;;;;5013279;28;20878;-71
2022/08/15 02:26:41;;;;;;;1999.90;999.90;;;21.60;99.90;;;;;;5012855;28;20874;-71
2022/08/15 02:29:08;;;;;;;1999.90;999.90;;;21.70;99.90;;;;;;5013589;28;20455;-71
2022/08/15 02:31:37;;;;;;;1999.90;999.90;;;21.80;99.90;;;;;;5012058;28;20486;-71
2022/08/15 02:34:06;;;;;;;1999.90;999.90;;;21.70;99.90;;;;;;5013072;28;20558;-71
2022/08/15 02:36:35;;;;;;;1999.90;999.90;;;21.80;99.90;;;;;;5013115;28;20448;-71
2022/08/15 02:39:07;;;;;;;1999.90;999.90;;;21.90;99.90;;;;;;5013120;28;20510;-71
2022/08/15 02:41:36;;;;;;;1999.90;999.90;;;22.00;99.90;;;;;;5013213;28;20432;-71
2022/08/15 02:44:05;;;;;;;1999.90;999.90;;;22.10;99.90;;;;;;5012729;28;20499;-71
2022/08/15 02:46:32;;;;;;;1999.90;999.90;;;22.00;99.90;;;;;;5011454;28;20518;-71
2022/08/15 02:49:01;;;;;;;1999.90;999.90;;;21.80;99.90;;;;;;5012934;28;20479;-71
2022/08/15 02:51:30;;;;;;;1999.90;999.90;;;21.80;99.90;;;;;;5012665;28;20588;-71
2022/08/15 02:53:57;;;;;;;1999.90;999.90;;;21.80;99.90;;;;;;5012529;28;21075;-70
2022/08/15 02:56:28;;;;;;;1999.90;999.90;;;21.80;99.90;;;;;;5012964;28;20455;-70
2022/08/15 02:58:55;;;;;;;1999.90;999.90;;;21.70;99.90;;;;;;5012266;28;20932;-70
2022/08/15 03:01:23;;;;;;;1999.90;999.90;;;21.60;99.90;;;;;;5012065;28;20467;-70
2022/08/15 03:03:53;;;;;;;1999.90;999.90;;;21.50;99.90;;;;;;5011752;28;20518;-71
2022/08/15 03:06:22;;;;;;;1999.90;999.90;;;21.40;99.90;;;;;;5012481;28;20952;-70
2022/08/15 03:08:51;;;;;;;1999.90;999.90;;;21.50;99.90;;;;;;5012609;28;20452;-71
2022/08/15 03:11:18;;;;;;;1999.90;999.90;;;21.50;99.90;;;;;;5012665;28;20517;-71
2022/08/15 03:13:45;;;;;;;1999.90;999.90;;;21.50;99.90;;;;;;5011529;28;21089;-71
2022/08/15 03:16:13;;;;;;;1999.90;999.90;;;21.60;99.90;;;;;;5012129;28;20594;-71
2022/08/15 03:18:41;;;;;;;1999.90;999.90;;;21.60;99.90;;;;;;5012608;28;20455;-71
2022/08/15 03:21:10;;;;;;;1999.90;999.90;;;21.60;99.90;;;;;;5012239;28;20547;-70
2022/08/15 03:23:37;;;;;;;1999.90;999.90;;;21.60;99.90;;;;;;5012674;28;20463;-69
2022/08/15 03:26:05;;;;;;;1999.90;999.90;;;21.60;99.90;;;;;;5012083;28;20448;-72
2022/08/15 03:28:33;;;;;;;1999.90;999.90;;;21.50;99.90;;;;;;5011439;28;20468;-71
2022/08/15 03:31:03;;;;;;;1999.90;999.90;;;21.60;99.90;;;;;;5012018;28;20448;-70
2022/08/15 03:33:31;;;;;;;1999.90;999.90;;;21.50;99.90;;;;;;5011856;28;20839;-70
2022/08/15 03:35:59;;;;;;;1999.90;999.90;;;21.50;99.90;;;;;;5011889;28;20463;-69
2022/08/15 03:38:26;;;;;;;1999.90;999.90;;;21.60;99.90;;;;;;5012314;28;20875;-71
2022/08/15 03:40:53;;;;;;;1999.90;999.90;;;21.70;99.90;;;;;;5012553;28;20444;-70
2022/08/15 03:43:26;;;;;;;1999.90;999.90;;;21.80;99.90;;;;;;5010906;28;20546;-70
2022/08/15 03:45:55;;;;;;;1999.90;999.90;;;21.80;99.90;;;;;;5011873;28;20452;-68
2022/08/15 03:48:24;;;;;;;1999.90;999.90;;;21.70;99.90;;;;;;5011682;28;20452;-70
2022/08/15 03:50:52;;;;;;;1999.90;999.90;;;21.60;99.90;;;;;;5012338;28;20448;-70
2022/08/15 03:53:20;;;;;;;1999.90;999.90;;;21.50;99.90;;;;;;5011868;28;20530;-71
2022/08/15 03:55:47;;;;;;;1999.90;999.90;;;21.30;99.90;;;;;;5011567;28;20854;-70
2022/08/15 03:58:15;;;;;;;1999.90;999.90;;;21.10;99.90;;;;;;5011264;28;20510;-70
2022/08/15 04:00:47;;;;;;;1999.90;999.90;;;21.20;99.90;;;;;;5012428;28;20508;-70
2022/08/15 04:03:19;;;;;;;1999.90;999.90;;;21.30;99.90;;;;;;5012160;28;20472;-70
2022/08/15 04:05:50;;;;;;;1999.90;999.90;;;21.50;99.90;;;;;;5011820;28;20940;-71
2022/08/15 04:08:18;;;;;;;1999.90;999.90;;;21.60;99.90;;;;;;5012390;28;20795;-71
2022/08/15 04:10:46;;;;;;;1999.90;999.90;;;21.70;99.90;;;;;;5011505;28;20514;-71
2022/08/15 04:13:13;;;;;;;1999.90;999.90;;;21.80;99.90;;;;;;5011454;28;20873;-72
2022/08/15 04:15:42;;;;;;;1999.90;999.90;;;21.80;99.90;;;;;;5013998;28;20484;-73
2022/08/15 04:18:10;;;;;;;1999.90;999.90;;;21.80;99.90;;;;;;5014959;28;20509;-73
2022/08/15 04:20:37;;;;;;;1999.90;999.90;;;21.60;99.90;;;;;;5014971;28;20448;-73
2022/08/15 04:23:05;;;;;;;1999.90;999.90;;;21.50;99.90;;;;;;5014425;28;20522;-73
2022/08/15 04:25:34;;;;;;;1999.90;999.90;;;21.40;99.90;;;;;;5013662;28;21018;-72
2022/08/15 04:28:02;;;;;;;1999.90;999.90;;;21.50;99.90;;;;;;5014711;28;20440;-73
2022/08/15 04:30:31;;;;;;;1999.90;999.90;;;21.50;99.90;;;;;;5014517;28;21010;-73
2022/08/15 04:33:09;;;;;;;1999.90;999.90;;;21.60;99.90;;;;;;5014576;28;20491;-72
2022/08/15 04:35:36;;;;;;;1999.90;999.90;;;21.60;99.90;;;;;;5014608;28;20424;-74
2022/08/15 04:38:03;;;;;;;1999.90;999.90;;;21.70;99.90;;;;;;5014214;28;20506;-73
2022/08/15 04:40:30;;;;;;;1999.90;999.90;;;21.70;99.90;;;;;;5013797;28;20510;-73
2022/08/15 04:42:59;;;;;;;1999.90;999.90;;;21.80;99.90;;;;;;5014336;28;20475;-72
2022/08/15 04:45:26;;;;;;;1999.90;999.90;;;21.70;99.90;;;;;;5014481;28;20444;-68
2022/08/15 04:47:53;;;;;;;1999.90;999.90;;;21.70;99.90;;;;;;5014829;28;20506;-71
2022/08/15 04:50:21;;;;;;;1999.90;999.90;;;21.80;99.90;;;;;;5014316;28;20507;-73
2022/08/15 04:52:53;;;;;;;1999.90;999.90;;;21.70;99.90;;;;;;5014392;28;20504;-72
2022/08/15 04:55:21;;;;;;;1999.90;999.90;;;21.70;99.90;;;;;;5013527;28;20464;-72
2022/08/15 04:57:48;;;;;;;1999.90;999.90;;;21.60;99.90;;;;;;5014458;28;20444;-72
2022/08/15 05:00:17;;;;;;;1999.90;999.90;;;21.60;99.90;;;;;;5014068;28;21041;-72
2022/08/15 05:02:57;;;;;;;1999.90;999.90;;;21.60;99.90;;;;;;5013825;28;20988;-71
2022/08/15 05:05:26;;;;;;;1999.90;999.90;;;21.60;99.90;;;;;;5013767;28;20924;-72
2022/08/15 05:07:53;;;;;;;1999.90;999.90;;;21.60;99.90;;;;;;5013107;28;20952;-72
2022/08/15 05:10:19;;;;;;;1999.90;999.90;;;21.60;99.90;;;;;;5013564;28;20506;-72
2022/08/15 05:12:46;;;;;;;1999.90;999.90;;;21.70;99.90;;;;;;5013861;28;20510;-72
2022/08/15 05:15:16;;;;;;;1999.90;999.90;;;21.80;99.90;;;;;;5013531;28;20452;-72
2022/08/15 05:17:44;;;;;;;1999.90;999.90;;;21.80;99.90;;;;;;5014163;28;20435;-72
2022/08/15 05:20:11;;;;;;;1999.90;999.90;;;21.80;99.90;;;;;;5013847;28;20455;-73
2022/08/15 05:22:52;;;;;;;1999.90;999.90;;;21.80;99.90;;;;;;5012977;28;20480;-72
2022/08/15 05:25:18;;;;;;;1999.90;999.90;;;21.90;99.90;;;;;;5012812;28;20797;-72
2022/08/15 05:27:45;;;;;;;1999.90;999.90;;;21.80;99.90;;;;;;5012725;28;20878;-71
2022/08/15 05:30:13;;;;;;;1999.90;999.90;;;21.90;99.90;;;;;;5013734;28;20448;-72
2022/08/15 05:32:39;;;;;;;1999.90;999.90;;;21.90;99.90;;;;;;5013578;28;20554;-73
2022/08/15 05:35:07;;;;;;;1999.90;999.90;;;21.90;99.90;;;;;;5013326;28;20543;-72
2022/08/15 05:37:34;;;;;;;1999.90;999.90;;;21.80;99.90;;;;;;5012462;28;21187;-72
2022/08/15 05:40:02;;;;;;;1999.90;999.90;;;21.90;99.90;;;;;;5012825;28;20454;-72
2022/08/15 05:45:08;;;;;;;1999.90;999.90;;;22.10;99.90;;;;;;5010268;28;20464;-67
2022/08/15 05:47:38;;;;;;;1999.90;999.90;;;22.00;99.90;;;;;;5013235;28;20466;-67
2022/08/15 05:50:13;;;;;;;1999.90;999.90;;;22.10;99.90;;;;;;5013185;28;20990;-67
2022/08/15 05:52:49;;;;;;;1999.90;999.90;;;22.10;99.90;;;;;;5011528;28;22502;-67
2022/08/15 05:55:25;;;;;;;1999.90;999.90;;;22.10;99.90;;;;;;5011820;28;20502;-67
2022/08/15 05:58:06;;;;;;;1999.90;999.90;;;22.40;99.90;;;;;;5010581;28;20459;-65
2022/08/15 06:00:34;;;;;;;1999.90;999.90;;;22.20;99.90;;;;;;5008555;28;20460;-66
2022/08/15 06:03:08;;;;;;;1999.90;999.90;;;22.20;99.90;;;;;;5013494;28;20460;-67
2022/08/15 06:05:39;;;;;;;1999.90;999.90;;;22.20;99.90;;;;;;5007999;28;20461;-68
2022/08/15 06:08:11;;;;;;;1999.90;999.90;;;22.20;99.90;;;;;;5012768;28;20448;-66
2022/08/15 06:10:46;;;;;;;1999.90;999.90;;;22.10;99.90;;;;;;5012983;28;20448;-68
2022/08/15 06:13:19;;;;;;;1999.90;999.90;;;22.30;99.90;;;;;;5010730;28;20491;-68
2022/08/15 06:15:51;;;;;;;1999.90;999.90;;;22.50;99.90;;;;;;5012349;28;20933;-67
2022/08/15 06:18:21;;;;;;;1999.90;999.90;;;22.60;99.90;;;;;;5012913;28;20932;-67
2022/08/15 06:20:55;;;;;;;1999.90;999.90;;;22.50;99.90;;;;;;5013146;28;21309;-68
2022/08/15 06:23:36;;;;;;;1999.90;999.90;;;22.40;99.90;;;;;;5013898;28;20472;-68
2022/08/15 06:26:17;;;;;;;1999.90;999.90;;;22.50;99.90;;;;;;5014192;28;20468;-67
2022/08/15 06:28:58;;;;;;;1999.90;999.90;;;22.40;99.90;;;;;;5014561;28;20833;-68
2022/08/15 06:31:31;;;;;;;1999.90;999.90;;;22.50;99.90;;;;;;5014024;28;20490;-66
2022/08/15 06:34:06;;;;;;;1999.90;999.90;;;22.30;99.90;;;;;;5013811;28;20492;-66
2022/08/15 06:36:40;;;;;;;1999.90;999.90;;;22.40;99.90;;;;;;5013559;28;20863;-66
2022/08/15 06:39:17;;;;;;;1999.90;999.90;;;22.60;99.90;;;;;;5013875;28;20506;-67
2022/08/15 06:41:54;;;;;;;1999.90;999.90;;;22.60;99.90;;;;;;5012881;28;20522;-67
2022/08/15 06:44:21;;;;;;;1999.90;999.90;;;22.70;99.90;;;;;;5016393;28;20570;-68
2022/08/15 06:46:53;;;;;;;1999.90;999.90;;;22.80;99.90;;;;;;5021122;28;20924;-68
2022/08/15 06:49:22;;;;;;;1999.90;999.90;;;22.90;99.90;;;;;;5013682;28;20432;-67
2022/08/15 06:51:49;;;;;;;1999.90;999.90;;;23.20;99.90;;;;;;5012963;28;20455;-66
2022/08/15 06:54:20;;;;;;;1999.90;999.90;;;23.00;99.90;;;;;;5011709;28;20895;-67
2022/08/15 06:57:01;;;;;;;1999.90;999.90;;;23.10;99.90;;;;;;5012743;28;20920;-67
2022/08/15 06:59:36;;;;;;;1999.90;999.90;;;23.20;99.90;;;;;;5012957;28;20494;-66
2022/08/15 07:02:16;;;;;;;1999.90;999.90;;;23.30;99.90;;;;;;5011734;28;20817;-65
2022/08/15 07:04:55;;;;;;;1999.90;999.90;;;23.30;99.90;;;;;;5013395;28;20543;-67
2022/08/15 07:07:29;;;;;;;1999.90;999.90;;;23.20;99.90;;;;;;5012882;28;21021;-67
2022/08/15 07:10:05;;;;;;;1999.90;999.90;;;23.40;99.90;;;;;;5011076;28;20464;-67
2022/08/15 07:12:39;;;;;;;1999.90;999.90;;;23.50;99.90;;;;;;5006008;28;20440;-67
2022/08/15 07:15:16;;;;;;;1999.90;999.90;;;23.50;99.90;;;;;;5012391;28;20904;-68
2022/08/15 07:17:48;;;;;;;1999.90;999.90;;;23.60;99.90;;;;;;5012603;28;20452;-66
2022/08/15 07:20:15;;;;;;;1999.90;999.90;;;23.60;99.90;;;;;;5010384;28;20464;-67
2022/08/15 07:22:43;;;;;;;1999.90;999.90;;;23.70;99.90;;;;;;5009794;28;21066;-68
2022/08/15 07:25:12;;;;;;;1999.90;999.90;;;23.70;99.90;;;;;;5012395;28;20440;-68
2022/08/15 07:27:40;;;;;;;1999.90;999.90;;;23.80;99.90;;;;;;5011330;28;20463;-68
2022/08/15 07:30:18;;;;;;;1999.90;999.90;;;24.00;99.90;;;;;;5012197;28;20944;-66
2022/08/15 07:32:50;;;;;;;1999.90;999.90;;;24.20;99.90;;;;;;5010967;28;20519;-68
2022/08/15 07:35:23;;;;;;;1999.90;999.90;;;24.30;99.90;;;;;;5012480;28;20432;-68
2022/08/15 07:37:58;;;;;;;1999.90;999.90;;;24.40;99.90;;;;;;5012998;28;20864;-67
2022/08/15 07:40:28;;;;;;;1999.90;999.90;;;24.40;99.90;;;;;;5012812;28;20531;-68
2022/08/15 07:42:58;;;;;;;1999.90;999.90;;;24.50;99.90;;;;;;5012537;28;20484;-67
2022/08/15 07:45:31;;;;;;;1999.90;999.90;;;24.90;99.90;;;;;;5012824;28;20460;-67
2022/08/15 07:48:02;;;;;;;1999.90;999.90;;;24.50;99.90;;;;;;5009883;28;20960;-68
2022/08/15 07:50:37;;;;;;;1999.90;999.90;;;24.90;99.90;;;;;;5007409;28;20486;-67
2022/08/15 07:53:11;;;;;;;1999.90;999.90;;;25.00;99.90;;;;;;5015750;28;21041;-68
2022/08/15 07:55:39;;;;;;;1999.90;999.90;;;25.20;99.90;;;;;;5015536;28;20470;-68
2022/08/15 07:58:17;;;;;;;1999.90;999.90;;;25.40;99.90;;;;;;5015933;28;20535;-67
2022/08/15 08:00:53;;;;;;;1999.90;999.90;;;25.60;99.90;;;;;;5015515;28;20940;-66
2022/08/15 08:03:24;;;;;;;1999.90;999.90;;;26.00;99.90;;;;;;5013687;28;22009;-68
2022/08/15 08:05:55;;;;;;;1999.90;999.90;;;26.40;99.90;;;;;;5015125;28;20527;-67
2022/08/15 08:08:27;;;;;;;1999.90;999.90;;;26.60;99.90;;;;;;5015192;28;20638;-67
2022/08/15 08:11:01;;;;;;;1999.90;999.90;;;27.00;99.60;;;;;;5015334;28;20444;-66
2022/08/15 08:13:39;;;;;;;1999.90;999.90;;;27.10;98.80;;;;;;5015090;28;20487;-68
2022/08/15 08:16:16;;;;;;;1999.90;999.90;;;27.20;98.30;;;;;;5014848;28;20443;-67
2022/08/15 08:18:53;;;;;;;1999.90;999.90;;;27.20;98.20;;;;;;5014027;28;20857;-67
2022/08/15 08:21:26;;;;;;;1999.90;999.90;;;27.50;98.20;;;;;;5014778;28;20492;-67
2022/08/15 08:23:56;;;;;;;1999.90;999.90;;;27.40;97.90;;;;;;5016323;28;20468;-67
2022/08/15 08:26:30;;;;;;;1999.90;999.90;;;27.70;97.70;;;;;;5014884;28;20483;-67
2022/08/15 08:29:10;;;;;;;1999.90;999.90;;;27.80;96.80;;;;;;5015953;28;20460;-66
2022/08/15 08:31:42;;;;;;;1999.90;999.90;;;27.90;96.70;;;;;;5013007;28;20463;-67
2022/08/15 08:34:20;;;;;;;1999.90;999.90;;;28.20;95.60;;;;;;5014327;28;20908;-68
2022/08/15 08:36:58;;;;;;;1999.90;999.90;;;28.40;95.60;;;;;;5014751;28;20460;-67
2022/08/15 08:39:36;;;;;;;1999.90;999.90;;;28.20;95.00;;;;;;5014878;28;20498;-66
2022/08/15 08:42:11;;;;;;;1999.90;999.90;;;28.20;95.50;;;;;;5014748;28;20428;-67
2022/08/15 08:44:50;;;;;;;1999.90;999.90;;;28.40;95.30;;;;;;5013748;28;20530;-67
2022/08/15 08:47:37;;;;;;;1999.90;999.90;;;28.60;94.60;;;;;;5014078;28;20457;-67
2022/08/15 08:50:19;;;;;;;1999.90;999.90;;;28.40;94.70;;;;;;5014461;28;20503;-67
2022/08/15 08:52:52;;;;;;;1999.90;999.90;;;28.80;94.60;;;;;;5014403;28;20474;-67
2022/08/15 08:55:24;;;;;;;1999.90;999.90;;;29.00;94.30;;;;;;5014646;28;20484;-66
2022/08/15 08:57:54;;;;;;;1999.90;999.90;;;29.10;93.60;;;;;;5024657;28;20443;-68
2022/08/15 09:00:30;;;;;;;1999.90;999.90;;;29.30;93.60;;;;;;5013033;28;20483;-68
2022/08/15 09:03:02;;;;;;;1999.90;999.90;;;29.40;93.20;;;;;;5013670;28;20463;-66
2022/08/15 09:05:42;;;;;;;1999.90;999.90;;;29.40;92.70;;;;;;5013884;28;20429;-67
2022/08/15 09:08:15;;;;;;;1999.90;999.90;;;29.40;92.50;;;;;;5014537;28;20924;-68
2022/08/15 09:10:47;;;;;;;1999.90;999.90;;;29.60;92.90;;;;;;5014199;28;20855;-69
2022/08/15 09:16:06;;;;;;;1999.90;999.90;;;29.90;92.60;;;;;;5010318;28;20420;-68
2022/08/15 09:18:38;;;;;;;1999.90;999.90;;;29.70;92.00;;;;;;5014390;28;20437;-67
2022/08/15 09:21:05;;;;;;;1999.90;999.90;;;29.60;92.50;;;;;;5013974;28;20452;-67
2022/08/15 09:23:37;;;;;;;1999.90;999.90;;;29.80;92.40;;;;;;5013342;28;20862;-67
2022/08/15 09:26:12;;;;;;;1999.90;999.90;;;29.70;92.10;;;;;;5013421;28;20514;-67
2022/08/15 09:28:40;;;;;;;1999.90;999.90;;;29.60;91.80;;;;;;5013320;28;20459;-69
2022/08/15 09:31:17;;;;;;;1999.90;999.90;;;29.80;92.00;;;;;;5013389;28;20476;-70
2022/08/15 09:34:12;;;;;;;1999.90;999.90;;;30.10;91.60;;;;;;5012992;28;20538;-69
2022/08/15 09:37:00;;;;;;;1999.90;999.90;;;30.20;91.40;;;;;;5013527;28;20432;-69
2022/08/15 09:40:05;;;;;;;1999.90;999.90;;;30.20;91.60;;;;;;5009942;28;20459;-69
2022/08/15 09:42:49;;;;;;;1999.90;999.90;;;30.30;91.90;;;;;;4987430;28;20479;-69
2022/08/15 09:45:36;;;;;;;1999.90;999.90;;;30.20;91.50;;;;;;5012979;28;20440;-68
2022/08/15 09:48:28;;;;;;;1999.90;999.90;;;30.20;92.00;;;;;;5013583;28;20467;-69
2022/08/15 09:51:11;;;;;;;1999.90;999.90;;;30.30;91.70;;;;;;5009427;28;20847;-69
2022/08/15 09:53:48;;;;;;;1999.90;999.90;;;30.50;90.50;;;;;;5013250;28;20526;-69
2022/08/15 09:56:19;;;;;;;1999.90;999.90;;;30.60;90.60;;;;;;5011462;28;20463;-69
2022/08/15 09:58:52;;;;;;;1999.90;999.90;;;30.60;90.30;;;;;;5012752;28;20464;-69
2022/08/15 10:01:21;;;;;;;1999.90;999.90;;;30.70;89.60;;;;;;5013038;28;20916;-68
2022/08/15 10:04:00;;;;;;;1999.90;999.90;;;30.70;89.80;;;;;;5012832;28;20495;-69
2022/08/15 10:06:30;;;;;;;1999.90;999.90;;;30.70;89.90;;;;;;5012751;28;20452;-68
2022/08/15 10:09:22;;;;;;;1999.90;999.90;;;30.60;90.20;;;;;;5013319;28;20433;-69
2022/08/15 10:11:59;;;;;;;1999.90;999.90;;;30.70;90.30;;;;;;5006129;28;20518;-69
2022/08/15 10:14:29;;;;;;;1999.90;999.90;;;30.90;90.10;;;;;;5006024;28;20487;-69
2022/08/15 10:16:59;;;;;;;1999.90;999.90;;;31.10;89.30;;;;;;5012770;28;20447;-68
2022/08/15 10:19:32;;;;;;;1999.90;999.90;;;30.90;89.30;;;;;;5013034;28;20795;-68
2022/08/15 10:22:01;;;;;;;1999.90;999.90;;;30.60;89.90;;;;;;5012546;28;20444;-69
2022/08/15 10:24:32;;;;;;;1999.90;999.90;;;30.30;90.00;;;;;;5012271;28;20503;-70
2022/08/15 10:27:22;;;;;;;1999.90;999.90;;;30.00;90.10;;;;;;5011561;28;20475;-69
2022/08/15 10:29:52;;;;;;;1999.90;999.90;;;29.70;90.60;;;;;;5007745;28;20448;-69
2022/08/15 10:32:35;;;;;;;1999.90;999.90;;;29.50;90.90;;;;;;5012553;28;20989;-67
2022/08/15 10:35:07;;;;;;;1999.90;999.90;;;29.30;91.40;;;;;;5011528;28;20522;-67
2022/08/15 10:37:45;;;;;;;1999.90;999.90;;;29.20;91.30;;;;;;5012628;28;20441;-68
2022/08/15 10:40:27;;;;;;;1999.90;999.90;;;29.20;91.90;;;;;;5012680;28;20440;-68
2022/08/15 10:43:05;;;;;;;1999.90;999.90;;;28.90;93.10;;;;;;5010293;28;21061;-68
2022/08/15 10:45:41;;;;;;;1999.90;999.90;;;28.80;93.20;;;;;;5005440;28;20526;-68
2022/08/15 10:48:17;;;;;;;1999.90;999.90;;;28.90;92.80;;;;;;5012242;28;20487;-67
2022/08/15 10:50:55;;;;;;;1999.90;999.90;;;28.90;93.10;;;;;;5012497;28;20488;-69
2022/08/15 10:53:38;;;;;;;1999.90;999.90;;;29.00;92.80;;;;;;5012412;28;20471;-68
2022/08/15 10:56:13;;;;;;;1999.90;999.90;;;28.90;93.10;;;;;;5011783;28;20490;-69
2022/08/15 10:58:40;;;;;;;1999.90;999.90;;;28.90;92.40;;;;;;5007987;28;20565;-68
2022/08/15 11:01:12;;;;;;;1999.90;999.90;;;28.80;93.10;;;;;;5012212;28;20447;-67
2022/08/15 11:03:43;;;;;;;1999.90;999.90;;;28.60;94.00;;;;;;5012276;28;20560;-68
2022/08/15 11:06:13;;;;;;;1999.90;999.90;;;28.40;96.70;;;;;;5013096;28;20851;-68
2022/08/15 11:08:46;;;;;;;1999.90;999.90;;;27.70;98.70;;;;;;5023494;28;20480;-67
2022/08/15 11:11:14;;;;;;;1999.90;999.90;;;27.00;99.90;;;;;;5011970;28;20471;-68
2022/08/15 11:13:43;;;;;;;1999.90;999.90;;;25.80;99.90;;;;;;5012568;28;20460;-68
2022/08/15 11:16:13;;;;;;;1999.90;999.90;;;25.30;99.90;;;;;;5012115;28;21089;-67
2022/08/15 11:18:48;;;;;;;1999.90;999.90;;;25.00;99.90;;;;;;5012770;28;20436;-68
2022/08/15 11:21:27;;;;;;;1999.90;999.90;;;24.80;99.90;;;;;;5012169;28;20447;-67
2022/08/15 11:23:57;;;;;;;1999.90;999.90;;;24.50;99.90;;;;;;5012946;28;20472;-68
2022/08/15 11:26:28;;;;;;;1999.90;999.90;;;24.90;99.90;;;;;;5015718;28;20515;-68
2022/08/15 11:29:08;;;;;;;1999.90;999.90;;;24.30;99.90;;;;;;5015896;28;20479;-69
2022/08/15 11:31:44;;;;;;;1999.90;999.90;;;23.80;99.90;;;;;;5015891;28;20444;-68
2022/08/15 11:34:20;;;;;;;1999.90;999.90;;;24.00;99.90;;;;;;5016474;28;20473;-69
2022/08/15 11:36:49;;;;;;;1999.90;999.90;;;24.30;99.90;;;;;;5016596;28;20498;-68
2022/08/15 11:39:18;;;;;;;1999.90;999.90;;;24.40;99.90;;;;;;5015562;28;20472;-68
2022/08/15 11:41:52;;;;;;;1999.90;999.90;;;24.60;99.90;;;;;;5016303;28;20444;-68
2022/08/15 11:44:20;;;;;;;1999.90;999.90;;;25.20;99.90;;;;;;5042876;22;20501;-68
2022/08/15 11:46:48;;;;;;;1999.90;999.90;;;25.90;99.90;;;;;;5040769;28;20700;-66
2022/08/15 11:49:26;;;;;;;1999.90;999.90;;;26.30;99.90;;;;;;5046957;28;20865;-69
2022/08/15 11:52:02;;;;;;;1999.90;999.90;;;26.80;99.90;;;;;;5055823;28;20849;-68
2022/08/15 11:54:28;;;;;;;1999.90;999.90;;;26.90;99.90;;;;;;5055244;28;20485;-69
2022/08/15 11:56:58;;;;;;;1999.90;999.90;;;27.00;99.90;;;;;;5051360;28;20475;-68
2022/08/15 11:59:28;;;;;;;1999.90;999.90;;;27.30;99.90;;;;;;5047226;28;20442;-69
2022/08/15 12:02:30;;;;;;;1999.90;999.90;;;27.20;99.90;;;;;;5055786;28;20443;-69
2022/08/15 12:05:08;;;;;;;1999.90;999.90;;;27.60;99.90;;;;;;5002560;28;20466;-69
2022/08/15 12:07:44;;;;;;;1999.90;999.90;;;28.20;99.90;;;;;;5041494;28;20495;-72
2022/08/15 12:10:25;;;;;;;1999.90;999.90;;;28.00;99.90;;;;;;5055325;28;20512;-70
2022/08/15 12:12:51;;;;;;;1999.90;999.90;;;28.20;99.90;;;;;;5055226;28;20507;-69
2022/08/15 12:15:21;;;;;;;1999.90;999.90;;;28.30;99.90;;;;;;5055184;28;20573;-69
2022/08/15 12:18:09;;;;;;;1999.90;999.90;;;28.20;99.90;;;;;;5047195;28;20509;-69
2022/08/15 12:20:41;;;;;;;1999.90;999.90;;;27.90;99.90;;;;;;5041736;28;20446;-69
2022/08/15 12:23:27;;;;;;;1999.90;999.90;;;27.90;99.90;;;;;;5055052;28;20469;-69
2022/08/15 12:25:55;;;;;;;1999.90;999.90;;;28.00;99.90;;;;;;5054882;28;20461;-69
2022/08/15 12:28:21;;;;;;;1999.90;999.90;;;27.70;99.90;;;;;;5054950;28;20958;-69
2022/08/15 12:30:48;;;;;;;1999.90;999.90;;;27.00;99.90;;;;;;5052889;28;20500;-69